createdAt,value
2023-04-16T00:01:31.111Z,33.23
2023-04-16T00:04:00.034Z,35.60
2023-04-16T00:06:28.824Z,33.20
2023-04-16T00:08:58.775Z,32.53
2023-04-16T00:11:27.278Z,32.50
2023-04-16T00:13:55.764Z,34.60
2023-04-16T00:16:24.198Z,31.47
2023-04-16T00:18:52.676Z,32.93
2023-04-16T00:21:21.252Z,32.93
2023-04-16T00:23:49.952Z,34.30
2023-04-16T00:26:19.801Z,33.93
2023-04-16T00:28:48.381Z,33.07
2023-04-16T00:31:17.259Z,33.27
2023-04-16T00:33:45.993Z,34.30
2023-04-16T00:36:14.553Z,31.90
2023-04-16T00:38:43.117Z,32.50
2023-04-16T00:41:11.651Z,32.57
2023-04-16T00:43:41.807Z,34.33
2023-04-16T00:46:10.523Z,36.37
2023-04-16T00:48:41.176Z,38.90
2023-04-16T00:51:11.709Z,35.23
2023-04-16T00:53:40.406Z,35.67
2023-04-16T00:56:09.558Z,35.93
2023-04-16T00:58:38.147Z,33.87
2023-04-16T01:01:08.317Z,34.47
2023-04-16T01:03:41.344Z,35.10
2023-04-16T01:06:11.052Z,32.47
2023-04-16T01:08:40.313Z,32.03
2023-04-16T01:11:09.263Z,33.00
2023-04-16T01:13:39.951Z,36.13
2023-04-16T01:16:11.461Z,35.40
2023-04-16T01:18:40.113Z,37.63
2023-04-16T01:21:10.089Z,33.07
2023-04-16T01:23:38.751Z,35.13
2023-04-16T01:26:07.213Z,32.50
2023-04-16T01:28:36.188Z,33.10
2023-04-16T01:31:04.711Z,34.83
2023-04-16T01:33:34.274Z,35.83
2023-04-16T01:36:02.752Z,37.60
2023-04-16T01:38:32.448Z,34.33
2023-04-16T01:41:02.556Z,32.60
2023-04-16T01:43:30.998Z,33.33
2023-04-16T01:46:12.600Z,33.33
2023-04-16T01:48:41.082Z,32.47
2023-04-16T01:51:10.584Z,34.50
2023-04-16T01:53:40.963Z,34.23
2023-04-16T01:56:09.669Z,32.10
2023-04-16T01:58:38.746Z,33.10
2023-04-16T02:01:07.539Z,34.93
2023-04-16T02:03:36.666Z,32.93
2023-04-16T02:06:05.788Z,37.03
2023-04-16T02:08:34.848Z,32.93
2023-04-16T02:11:04.906Z,34.50
2023-04-16T02:13:33.609Z,33.87
2023-04-16T02:16:02.752Z,32.77
2023-04-16T02:18:31.634Z,32.57
2023-04-16T02:21:01.053Z,33.00
2023-04-16T02:23:29.772Z,33.20
2023-04-16T02:25:58.479Z,31.93
2023-04-16T02:28:28.871Z,33.10
2023-04-16T02:30:57.643Z,34.00
2023-04-16T02:33:27.598Z,33.07
2023-04-16T02:35:56.433Z,33.47
2023-04-16T02:38:25.080Z,35.57
2023-04-16T02:40:53.778Z,34.03
2023-04-16T02:43:22.479Z,34.37
2023-04-16T02:45:52.802Z,31.83
2023-04-16T02:48:21.951Z,34.10
2023-04-16T02:50:50.808Z,33.03
2023-04-16T02:53:19.604Z,35.37
2023-04-16T02:55:53.312Z,34.20
2023-04-16T02:58:22.468Z,34.83
2023-04-16T03:00:53.021Z,33.67
2023-04-16T03:03:22.103Z,35.40
2023-04-16T03:05:51.358Z,34.90
2023-04-16T03:08:19.943Z,35.97
2023-04-16T03:10:48.653Z,37.57
2023-04-16T03:13:17.269Z,37.37
2023-04-16T03:15:51.730Z,37.40
2023-04-16T03:18:20.528Z,37.57
2023-04-16T03:20:53.556Z,38.97
2023-04-16T03:23:22.383Z,40.33
2023-04-16T03:25:51.201Z,41.53
2023-04-16T03:28:19.846Z,42.00
2023-04-16T03:30:53.939Z,39.93
2023-04-16T03:33:23.001Z,37.30
2023-04-16T03:35:57.556Z,39.10
2023-04-16T03:38:26.840Z,38.13
2023-04-16T03:40:55.373Z,41.80
2023-04-16T03:43:23.920Z,37.40
2023-04-16T03:45:53.649Z,38.70
2023-04-16T03:48:22.215Z,39.37
2023-04-16T03:50:50.706Z,39.63
2023-04-16T03:53:19.148Z,39.97
2023-04-16T03:55:50.802Z,39.47
2023-04-16T03:58:19.260Z,37.13
2023-04-16T04:00:47.903Z,36.70
2023-04-16T04:03:18.611Z,36.07
2023-04-16T04:05:47.079Z,36.03
2023-04-16T04:08:15.506Z,35.67
2023-04-16T04:10:43.699Z,34.07
2023-04-16T04:13:11.959Z,33.97
2023-04-16T04:15:40.161Z,33.97
2023-04-16T04:18:08.353Z,32.43
2023-04-16T04:20:41.046Z,33.07
2023-04-16T04:23:09.398Z,35.43
2023-04-16T04:25:37.766Z,32.53
2023-04-16T04:28:06.301Z,32.90
2023-04-16T04:30:35.882Z,32.87
2023-04-16T04:33:04.163Z,33.73
2023-04-16T04:35:32.620Z,31.90
2023-04-16T04:38:02.936Z,35.93
2023-04-16T04:40:31.249Z,34.07
2023-04-16T04:42:59.513Z,34.13
2023-04-16T04:45:31.945Z,34.50
2023-04-16T04:48:00.445Z,33.60
2023-04-16T04:50:28.835Z,37.43
2023-04-16T04:52:57.064Z,38.40
2023-04-16T04:55:26.749Z,37.87
2023-04-16T04:57:55.074Z,37.43
2023-04-16T05:00:23.353Z,38.30
2023-04-16T05:02:52.159Z,32.83
2023-04-16T05:05:21.060Z,37.10
2023-04-16T05:07:49.288Z,33.40
2023-04-16T05:10:17.723Z,37.70
2023-04-16T05:12:48.943Z,38.33
2023-04-16T05:15:17.715Z,36.83
2023-04-16T05:17:46.078Z,35.97
2023-04-16T05:20:14.390Z,36.10
2023-04-16T05:22:42.628Z,34.90
2023-04-16T05:25:11.245Z,35.57
2023-04-16T05:27:39.563Z,38.27
2023-04-16T05:30:10.491Z,37.30
2023-04-16T05:32:39.956Z,36.57
2023-04-16T05:35:09.595Z,33.93
2023-04-16T05:37:38.010Z,33.17
2023-04-16T05:40:07.206Z,32.70
2023-04-16T05:42:35.448Z,34.03
2023-04-16T05:45:04.900Z,34.03
2023-04-16T05:47:34.572Z,33.27
2023-04-16T05:50:02.956Z,31.33
2023-04-16T05:52:31.305Z,32.50
2023-04-16T05:55:01.803Z,29.70
2023-04-16T05:57:30.540Z,30.20
2023-04-16T05:59:59.055Z,32.97
2023-04-16T06:02:27.553Z,33.70
2023-04-16T06:04:57.304Z,30.03
2023-04-16T06:07:25.527Z,31.60
2023-04-16T06:09:53.780Z,31.50
2023-04-16T06:12:21.959Z,30.90
2023-04-16T06:14:50.231Z,29.90
2023-04-16T06:17:19.484Z,31.17
2023-04-16T06:19:47.710Z,30.03
2023-04-16T06:22:17.490Z,29.20
2023-04-16T06:24:45.996Z,28.63
2023-04-16T06:27:14.282Z,29.00
2023-04-16T06:29:42.541Z,29.93
2023-04-16T06:32:11.252Z,31.03
2023-04-16T06:34:39.644Z,31.30
2023-04-16T06:37:10.319Z,29.23
2023-04-16T06:39:40.826Z,28.93
2023-04-16T06:42:09.185Z,29.50
2023-04-16T06:44:37.682Z,30.40
2023-04-16T06:47:05.997Z,28.13
2023-04-16T06:49:34.289Z,29.93
2023-04-16T06:52:05.162Z,27.47
2023-04-16T06:54:34.136Z,28.43
2023-04-16T06:57:03.777Z,28.77
2023-04-16T06:59:32.055Z,29.93
2023-04-16T07:02:00.437Z,29.70
2023-04-16T07:04:28.863Z,29.80
2023-04-16T07:06:57.209Z,29.10
2023-04-16T07:09:26.824Z,30.20
2023-04-16T07:11:55.521Z,29.47
2023-04-16T07:14:25.229Z,30.97
2023-04-16T07:16:53.491Z,28.40
2023-04-16T07:19:21.921Z,34.47
2023-04-16T07:21:50.484Z,53.47
2023-04-16T07:24:18.729Z,32.30
2023-04-16T07:26:47.010Z,31.73
2023-04-16T07:29:15.225Z,30.43
2023-04-16T07:31:44.923Z,29.13
2023-04-16T07:34:14.215Z,30.20
2023-04-16T07:36:42.550Z,33.13
2023-04-16T07:39:13.231Z,28.03
2023-04-16T07:41:41.666Z,30.80
2023-04-16T07:44:10.269Z,31.70
2023-04-16T07:46:46.415Z,30.07
2023-04-16T07:49:16.908Z,28.17
2023-04-16T07:51:45.209Z,30.37
2023-04-16T07:54:13.474Z,27.67
2023-04-16T07:56:41.822Z,28.47
2023-04-16T07:59:22.127Z,28.43
2023-04-16T08:01:53.654Z,26.97
2023-04-16T08:04:26.464Z,29.07
2023-04-16T08:06:55.522Z,27.93
2023-04-16T08:09:28.464Z,29.97
2023-04-16T08:11:56.853Z,25.77
2023-04-16T08:14:25.180Z,28.80
2023-04-16T08:16:53.513Z,29.07
2023-04-16T08:19:23.272Z,29.43
2023-04-16T08:21:51.559Z,30.37
2023-04-16T08:24:19.803Z,29.07
2023-04-16T08:26:48.043Z,27.63
2023-04-16T08:29:16.330Z,26.97
2023-04-16T08:31:44.770Z,26.47
2023-04-16T08:34:13.379Z,26.13
2023-04-16T08:36:43.267Z,25.20
2023-04-16T08:39:11.914Z,26.13
2023-04-16T08:41:44.120Z,25.00
2023-04-16T08:44:21.019Z,22.70
2023-04-16T08:46:49.449Z,23.00
2023-04-16T08:49:19.154Z,22.17
2023-04-16T08:51:53.207Z,24.67
2023-04-16T08:54:38.524Z,22.30
2023-04-16T08:57:08.168Z,23.53
2023-04-16T08:59:37.244Z,23.63
2023-04-16T09:02:07.515Z,21.53
2023-04-16T09:04:37.944Z,22.30
2023-04-16T09:07:10.152Z,20.83
2023-04-16T09:09:39.921Z,22.07
2023-04-16T09:12:09.932Z,23.33
2023-04-16T09:14:41.833Z,21.17
2023-04-16T09:17:10.989Z,22.77
2023-04-16T09:19:39.268Z,24.60
2023-04-16T09:22:09.075Z,22.97
2023-04-16T09:24:38.611Z,23.33
2023-04-16T09:27:07.111Z,23.97
2023-04-16T09:29:37.132Z,22.77
2023-04-16T09:32:06.952Z,23.17
2023-04-16T09:34:35.912Z,22.43
2023-04-16T09:37:17.775Z,22.33
2023-04-16T09:39:46.673Z,21.93
2023-04-16T09:42:15.810Z,20.83
2023-04-16T09:44:44.009Z,21.67
2023-04-16T09:47:12.805Z,18.77
2023-04-16T09:49:43.347Z,20.50
2023-04-16T09:52:15.534Z,21.50
2023-04-16T09:54:52.755Z,20.73
2023-04-16T09:57:24.422Z,19.80
2023-04-16T09:59:57.442Z,22.13
2023-04-16T10:02:28.441Z,21.23
2023-04-16T10:04:57.680Z,19.27
2023-04-16T10:07:29.768Z,22.73
2023-04-16T10:10:00.163Z,23.53
2023-04-16T10:12:29.960Z,24.43
2023-04-16T10:14:58.136Z,22.73
2023-04-16T10:17:29.901Z,23.50
2023-04-16T10:19:59.589Z,24.50
2023-04-16T10:22:27.824Z,24.83
2023-04-16T10:24:56.825Z,24.13
2023-04-16T10:27:28.094Z,23.90
2023-04-16T10:29:57.635Z,23.17
2023-04-16T10:32:28.731Z,23.73
2023-04-16T10:34:57.228Z,23.73
2023-04-16T10:37:32.095Z,23.17
2023-04-16T10:40:00.826Z,23.67
2023-04-16T10:42:30.635Z,21.77
2023-04-16T10:45:01.297Z,20.97
2023-04-16T10:47:31.713Z,19.47
2023-04-16T10:50:00.090Z,18.00
2023-04-16T10:52:31.285Z,20.33
2023-04-16T10:55:01.436Z,20.37
2023-04-16T10:57:31.972Z,20.90
2023-04-16T11:00:00.177Z,22.73
2023-04-16T11:02:31.003Z,21.27
2023-04-16T11:04:59.549Z,21.60
2023-04-16T11:07:35.168Z,22.33
2023-04-16T11:10:07.225Z,22.60
2023-04-16T11:12:38.658Z,20.53
2023-04-16T11:15:08.740Z,22.10
2023-04-16T11:17:40.105Z,23.67
2023-04-16T11:20:18.826Z,22.53
2023-04-16T11:22:48.848Z,22.73
2023-04-16T11:25:22.065Z,23.47
2023-04-16T11:27:52.283Z,21.87
2023-04-16T11:30:30.569Z,22.83
2023-04-16T11:32:58.954Z,24.83
2023-04-16T11:35:27.378Z,23.03
2023-04-16T11:37:58.155Z,23.57
2023-04-16T11:40:26.770Z,20.93
2023-04-16T11:42:57.658Z,19.40
2023-04-16T11:45:27.137Z,19.93
2023-04-16T11:47:57.402Z,20.90
2023-04-16T11:50:27.302Z,19.60
2023-04-16T11:52:57.019Z,20.20
2023-04-16T11:55:25.744Z,20.37
2023-04-16T11:57:55.804Z,17.70
2023-04-16T12:00:24.833Z,16.40
2023-04-16T12:02:55.051Z,17.53
2023-04-16T12:05:32.098Z,17.07
2023-04-16T12:08:01.725Z,16.80
2023-04-16T12:10:30.932Z,16.53
2023-04-16T12:13:13.787Z,17.40
2023-04-16T12:15:47.460Z,16.33
2023-04-16T12:18:16.310Z,15.83
2023-04-16T12:20:45.467Z,15.87
2023-04-16T12:23:26.447Z,15.50
2023-04-16T12:25:55.319Z,14.23
2023-04-16T12:28:37.024Z,15.30
2023-04-16T12:31:06.804Z,15.47
2023-04-16T12:33:35.604Z,14.93
2023-04-16T12:36:19.127Z,14.77
2023-04-16T12:38:47.784Z,16.47
2023-04-16T12:41:16.183Z,15.60
2023-04-16T12:43:46.875Z,15.80
2023-04-16T12:46:15.451Z,16.90
2023-04-16T12:48:44.255Z,15.97
2023-04-16T12:51:12.625Z,17.70
2023-04-16T12:53:41.318Z,14.93
2023-04-16T12:56:10.364Z,16.70
2023-04-16T12:58:39.183Z,16.37
2023-04-16T13:01:09.094Z,15.97
2023-04-16T13:03:37.808Z,16.40
2023-04-16T13:06:06.706Z,15.50
2023-04-16T13:08:35.197Z,14.33
2023-04-16T13:11:04.319Z,14.47
2023-04-16T13:13:32.728Z,13.57
2023-04-16T13:16:01.513Z,15.40
2023-04-16T13:18:31.884Z,15.70
2023-04-16T13:21:00.593Z,15.57
2023-04-16T13:23:29.565Z,16.93
2023-04-16T13:25:58.147Z,17.37
2023-04-16T13:28:27.037Z,17.20
2023-04-16T13:30:56.181Z,17.27
2023-04-16T13:33:25.269Z,16.90
2023-04-16T13:35:55.568Z,17.27
2023-04-16T13:38:24.006Z,18.93
2023-04-16T13:40:52.834Z,18.10
2023-04-16T13:43:22.462Z,18.17
2023-04-16T13:45:51.082Z,18.33
2023-04-16T13:48:19.815Z,17.63
2023-04-16T13:50:48.455Z,18.10
2023-04-16T13:53:18.402Z,16.83
2023-04-16T13:55:46.873Z,16.00
2023-04-16T13:58:15.867Z,16.90
2023-04-16T14:00:44.873Z,17.53
2023-04-16T14:03:13.609Z,15.17
2023-04-16T14:05:43.206Z,16.13
2023-04-16T14:08:13.135Z,14.27
2023-04-16T14:10:43.130Z,14.90
2023-04-16T14:13:12.404Z,15.07
2023-04-16T14:15:40.895Z,13.73
2023-04-16T14:18:09.313Z,14.33
2023-04-16T14:20:39.961Z,12.77
2023-04-16T14:23:08.657Z,12.93
2023-04-16T14:25:37.135Z,16.77
2023-04-16T14:28:07.234Z,16.50
2023-04-16T14:30:35.718Z,15.47
2023-04-16T14:33:06.733Z,13.03
2023-04-16T14:35:36.150Z,12.07
2023-04-16T14:38:04.528Z,13.27
2023-04-16T14:40:32.964Z,12.30
2023-04-16T14:43:01.368Z,11.50
2023-04-16T14:45:32.530Z,11.80
2023-04-16T14:48:01.067Z,10.50
2023-04-16T14:50:29.518Z,9.60
2023-04-16T14:52:57.859Z,10.20
2023-04-16T14:55:26.240Z,10.17
2023-04-16T14:57:54.478Z,17.07
2023-04-16T15:00:23.716Z,10.73
2023-04-16T15:02:54.238Z,12.57
2023-04-16T15:05:22.730Z,11.07
2023-04-16T15:07:51.376Z,10.80
2023-04-16T15:10:19.766Z,9.20
2023-04-16T15:12:48.156Z,8.00
2023-04-16T15:15:16.652Z,7.50
2023-04-16T15:17:45.496Z,8.47
2023-04-16T15:20:15.818Z,7.33
2023-04-16T15:22:44.236Z,7.37
2023-04-16T15:25:12.688Z,7.30
2023-04-16T15:27:40.980Z,7.30
2023-04-16T15:30:10.406Z,7.27
2023-04-16T15:32:38.807Z,7.13
2023-04-16T15:35:09.812Z,7.50
2023-04-16T15:37:41.161Z,7.20
2023-04-16T15:40:10.836Z,8.03
2023-04-16T15:42:39.981Z,7.83
2023-04-16T15:45:08.877Z,8.13
2023-04-16T15:47:39.533Z,7.30
2023-04-16T15:50:10.016Z,8.07
2023-04-16T15:52:39.545Z,7.93
2023-04-16T15:55:09.853Z,8.90
2023-04-16T15:57:38.320Z,7.37
2023-04-16T16:00:13.471Z,8.03
2023-04-16T16:02:44.118Z,8.10
2023-04-16T16:05:13.842Z,8.90
2023-04-16T16:07:42.300Z,8.40
2023-04-16T16:10:13.260Z,8.07
2023-04-16T16:12:42.214Z,8.23
2023-04-16T16:15:11.299Z,8.20
2023-04-16T16:17:40.710Z,8.10
2023-04-16T16:20:10.771Z,8.93
2023-04-16T16:22:39.435Z,8.20
2023-04-16T16:25:10.212Z,8.20
2023-04-16T16:27:42.675Z,7.90
2023-04-16T16:30:12.257Z,8.13
2023-04-16T16:32:43.193Z,8.50
2023-04-16T16:35:12.689Z,8.17
2023-04-16T16:37:43.750Z,8.73
2023-04-16T16:40:12.831Z,8.60
2023-04-16T16:42:42.897Z,8.43
2023-04-16T16:45:12.226Z,7.80
2023-04-16T16:47:40.718Z,8.53
2023-04-16T16:50:11.465Z,8.97
2023-04-16T16:52:40.164Z,9.37
2023-04-16T16:55:11.167Z,9.67
2023-04-16T16:57:39.859Z,9.20
2023-04-16T17:00:14.459Z,9.40
2023-04-16T17:02:43.176Z,8.97
2023-04-16T17:05:12.689Z,8.83
2023-04-16T17:07:41.403Z,8.23
2023-04-16T17:10:13.221Z,8.53
2023-04-16T17:12:41.602Z,8.43
2023-04-16T17:15:12.283Z,8.97
2023-04-16T17:17:40.764Z,9.00
2023-04-16T17:20:11.130Z,8.87
2023-04-16T17:22:40.066Z,8.53
2023-04-16T17:25:09.262Z,8.33
2023-04-16T17:27:37.647Z,8.27
2023-04-16T17:30:07.013Z,9.30
2023-04-16T17:32:36.832Z,9.60
2023-04-16T17:35:07.047Z,9.57
2023-04-16T17:37:35.541Z,9.40
2023-04-16T17:40:07.599Z,9.20
2023-04-16T17:42:36.270Z,9.27
2023-04-16T17:45:04.855Z,9.93
2023-04-16T17:47:35.361Z,10.13
2023-04-16T17:50:05.784Z,9.03
2023-04-16T17:52:35.160Z,9.93
2023-04-16T17:55:03.900Z,9.50
2023-04-16T17:57:32.743Z,10.23
2023-04-16T18:00:01.342Z,9.40
2023-04-16T18:02:29.917Z,10.10
2023-04-16T18:04:58.419Z,9.27
2023-04-16T18:07:28.410Z,9.80
2023-04-16T18:09:57.233Z,9.47
2023-04-16T18:12:25.615Z,9.53
2023-04-16T18:14:54.045Z,9.77
2023-04-16T18:17:23.210Z,9.67
2023-04-16T18:19:51.539Z,9.93
2023-04-16T18:22:19.949Z,9.90
2023-04-16T18:24:49.760Z,9.63
2023-04-16T18:27:18.104Z,9.60
2023-04-16T18:29:46.546Z,10.10
2023-04-16T18:32:14.998Z,9.73
2023-04-16T18:34:43.363Z,9.27
2023-04-16T18:37:11.799Z,9.57
2023-04-16T18:39:40.066Z,9.70
2023-04-16T18:42:12.124Z,9.93
2023-04-16T18:44:40.489Z,9.23
2023-04-16T18:47:08.919Z,9.67
2023-04-16T18:49:37.262Z,8.73
2023-04-16T18:52:05.983Z,9.27
2023-04-16T18:54:34.281Z,10.37
2023-04-16T18:57:02.879Z,10.07
2023-04-16T18:59:32.618Z,10.07
2023-04-16T19:02:01.016Z,11.20
2023-04-16T19:04:29.472Z,11.23
2023-04-16T19:06:57.728Z,11.20
2023-04-16T19:09:27.445Z,10.73
2023-04-16T19:11:56.134Z,11.30
2023-04-16T19:14:24.528Z,10.80
2023-04-16T19:16:54.442Z,10.77
2023-04-16T19:19:22.794Z,11.23
2023-04-16T19:21:51.156Z,11.60
2023-04-16T19:24:20.019Z,11.37
2023-04-16T19:26:48.404Z,11.33
2023-04-16T19:29:18.126Z,11.97
2023-04-16T19:31:47.501Z,12.00
2023-04-16T19:34:17.231Z,12.23
2023-04-16T19:36:46.291Z,12.63
2023-04-16T19:39:14.600Z,12.80
2023-04-16T19:41:42.951Z,12.87
2023-04-16T19:44:11.771Z,13.37
2023-04-16T19:46:40.306Z,13.27
2023-04-16T19:49:08.645Z,14.23
2023-04-16T19:51:38.589Z,13.87
2023-04-16T19:54:07.171Z,14.40
2023-04-16T19:56:35.935Z,14.70
2023-04-16T19:59:04.301Z,14.97
2023-04-16T20:01:32.666Z,13.90
2023-04-16T20:04:01.161Z,14.20
2023-04-16T20:06:29.799Z,14.90
2023-04-16T20:08:59.643Z,13.50
2023-04-16T20:11:28.007Z,14.23
2023-04-16T20:14:00.187Z,14.87
2023-04-16T20:16:28.753Z,15.17
2023-04-16T20:18:57.153Z,15.43
2023-04-16T20:21:26.369Z,14.80
2023-04-16T20:23:54.869Z,14.40
2023-04-16T20:26:25.259Z,14.80
2023-04-16T20:28:53.606Z,14.73
2023-04-16T20:31:22.015Z,13.37
2023-04-16T20:33:50.393Z,13.67
2023-04-16T20:36:18.708Z,13.93
2023-04-16T20:38:47.012Z,13.40
2023-04-16T20:41:21.053Z,13.37
2023-04-16T20:43:53.024Z,13.97
2023-04-16T20:46:24.290Z,13.07
2023-04-16T20:48:52.954Z,13.00
2023-04-16T20:51:21.640Z,14.17
2023-04-16T20:53:52.247Z,12.67
2023-04-16T20:56:21.090Z,12.77
2023-04-16T20:58:53.236Z,13.17
2023-04-16T21:01:21.963Z,12.90
2023-04-16T21:03:50.475Z,13.87
2023-04-16T21:06:22.594Z,13.03
2023-04-16T21:08:50.873Z,14.30
2023-04-16T21:11:19.162Z,13.77
2023-04-16T21:13:47.486Z,13.30
2023-04-16T21:16:17.430Z,14.13
2023-04-16T21:18:45.756Z,14.33
2023-04-16T21:21:14.045Z,14.40
2023-04-16T21:23:42.332Z,15.07
2023-04-16T21:26:10.622Z,16.17
2023-04-16T21:28:38.988Z,14.60
2023-04-16T21:31:07.369Z,14.80
2023-04-16T21:33:37.186Z,16.63
2023-04-16T21:36:05.942Z,15.63
2023-04-16T21:38:34.250Z,15.87
2023-04-16T21:41:03.390Z,16.17
2023-04-16T21:43:32.254Z,15.57
2023-04-16T21:46:00.945Z,15.60
2023-04-16T21:48:29.396Z,15.90
2023-04-16T21:51:00.189Z,16.60
2023-04-16T21:53:29.676Z,15.40
2023-04-16T21:55:57.970Z,16.00
2023-04-16T21:58:26.682Z,17.63
2023-04-16T22:00:55.344Z,17.07
2023-04-16T22:03:26.719Z,15.47
2023-04-16T22:06:01.743Z,17.43
2023-04-16T22:08:31.212Z,18.77
2023-04-16T22:11:01.636Z,18.90
2023-04-16T22:13:32.753Z,77.77
2023-04-16T22:16:02.714Z,19.67
2023-04-16T22:18:34.081Z,49.13
2023-04-16T22:21:04.191Z,19.70
2023-04-16T22:23:32.948Z,18.67
2023-04-16T22:26:03.072Z,19.67
2023-04-16T22:28:31.785Z,18.50
2023-04-16T22:31:00.588Z,18.10
2023-04-16T22:33:31.273Z,16.77
2023-04-16T22:36:01.612Z,18.27
2023-04-16T22:38:31.742Z,18.57
2023-04-16T22:41:00.473Z,18.63
2023-04-16T22:43:29.209Z,16.93
2023-04-16T22:46:04.984Z,17.87
2023-04-16T22:48:34.129Z,18.37
2023-04-16T22:51:02.895Z,18.53
2023-04-16T22:53:33.188Z,19.27
2023-04-16T22:56:02.335Z,17.50
2023-04-16T22:58:31.120Z,18.77
2023-04-16T23:01:01.916Z,18.57
2023-04-16T23:03:30.994Z,18.80
2023-04-16T23:05:59.826Z,18.43
2023-04-16T23:08:28.564Z,19.27
2023-04-16T23:10:58.756Z,19.57
2023-04-16T23:13:27.564Z,19.67
2023-04-16T23:15:56.504Z,18.13
2023-04-16T23:18:25.090Z,18.40
2023-04-16T23:20:53.985Z,17.73
2023-04-16T23:23:22.700Z,18.17
2023-04-16T23:25:54.605Z,18.70
2023-04-16T23:28:24.709Z,20.27
2023-04-16T23:30:54.331Z,19.83
2023-04-16T23:33:23.141Z,18.73
2023-04-16T23:35:51.760Z,17.07
2023-04-16T23:38:20.482Z,18.07
2023-04-16T23:40:49.259Z,19.20
2023-04-16T23:43:18.141Z,19.40
2023-04-16T23:45:48.432Z,18.97
2023-04-16T23:48:17.260Z,19.23
2023-04-16T23:50:46.074Z,18.47
2023-04-16T23:53:14.877Z,18.77
2023-04-16T23:55:43.589Z,17.57
2023-04-16T23:58:12.329Z,17.17
